createdAt,value
2018-04-12T00:00:02.756Z,11.06
2018-04-12T00:02:34.457Z,11.03
2018-04-12T00:05:05.609Z,10.95
2018-04-12T00:07:42.193Z,10.86
2018-04-12T00:10:14.416Z,11.00
2018-04-12T00:12:45.836Z,10.96
2018-04-12T00:15:16.453Z,10.86
2018-04-12T00:17:50.051Z,10.83
2018-04-12T00:20:21.408Z,10.78
2018-04-12T00:22:53.172Z,10.66
2018-04-12T00:25:26.748Z,10.61
2018-04-12T00:27:59.144Z,10.53
2018-04-12T00:30:30.432Z,10.46
2018-04-12T00:33:01.663Z,10.40
2018-04-12T00:35:33.860Z,10.37
2018-04-12T00:38:04.855Z,10.37
2018-04-12T00:40:36.065Z,10.37
2018-04-12T00:43:07.407Z,10.39
2018-04-12T00:45:56.825Z,10.32
2018-04-12T00:48:29.764Z,10.30
2018-04-12T00:51:04.004Z,10.12
2018-04-12T00:53:45.026Z,10.11
2018-04-12T00:56:21.464Z,9.99
2018-04-12T00:58:55.309Z,10.06
2018-04-12T01:01:26.898Z,10.12
2018-04-12T01:03:58.462Z,10.21
2018-04-12T01:06:31.398Z,10.14
2018-04-12T01:09:03.602Z,10.15
2018-04-12T01:11:39.974Z,10.02
2018-04-12T01:14:11.619Z,9.92
2018-04-12T01:16:42.387Z,9.91
2018-04-12T01:25:21.927Z,9.86
2018-04-12T01:27:51.389Z,9.78
2018-04-12T01:30:25.588Z,9.71
2018-04-12T01:33:08.170Z,9.73
2018-04-12T01:35:43.366Z,9.65
2018-04-12T01:38:15.314Z,9.54
2018-04-12T01:40:45.553Z,9.48
2018-04-12T01:43:14.168Z,9.62
2018-04-12T01:45:42.686Z,9.58
2018-04-12T01:48:11.330Z,9.57
2018-04-12T01:50:39.865Z,9.55
2018-04-12T01:53:08.706Z,9.60
2018-04-12T01:55:37.600Z,9.56
2018-04-12T01:58:06.208Z,9.51
2018-04-12T02:00:34.755Z,9.62
2018-04-12T02:03:03.370Z,9.51
2018-04-12T02:05:31.879Z,9.56
2018-04-12T02:08:00.502Z,9.61
2018-04-12T02:10:29.086Z,9.46
2018-04-12T02:12:57.671Z,9.33
2018-04-12T02:15:26.338Z,9.50
2018-04-12T02:17:59.635Z,9.47
2018-04-12T02:20:28.206Z,9.48
2018-04-12T02:22:56.740Z,9.57
2018-04-12T02:25:25.271Z,9.52
2018-04-12T02:27:54.207Z,9.56
2018-04-12T02:30:23.384Z,9.51
2018-04-12T02:32:53.362Z,9.60
2018-04-12T02:35:24.246Z,9.44
2018-04-12T02:37:53.369Z,9.45
2018-04-12T02:40:22.869Z,9.28
2018-04-12T02:42:54.063Z,9.23
2018-04-12T02:45:23.160Z,9.34
2018-04-12T02:47:52.856Z,9.27
2018-04-12T02:50:23.120Z,9.00
2018-04-12T02:52:51.764Z,9.13
2018-04-12T02:55:21.386Z,9.22
2018-04-12T02:57:49.967Z,9.08
2018-04-12T03:00:18.656Z,9.19
2018-04-12T03:02:47.375Z,9.24
2018-04-12T03:05:16.069Z,9.20
2018-04-12T03:07:45.018Z,9.24
2018-04-12T03:10:13.628Z,9.19
2018-04-12T03:12:45.353Z,9.07
2018-04-12T03:15:13.839Z,9.05
2018-04-12T03:17:45.084Z,9.11
2018-04-12T03:20:13.601Z,9.09
2018-04-12T03:22:42.422Z,9.03
2018-04-12T03:25:10.904Z,8.98
2018-04-12T03:27:41.752Z,8.97
2018-04-12T03:30:11.992Z,8.94
2018-04-12T03:32:43.203Z,9.00
2018-04-12T03:35:11.780Z,8.90
2018-04-12T03:37:40.300Z,8.85
2018-04-12T03:40:09.181Z,8.80
2018-04-12T03:42:37.884Z,8.85
2018-04-12T03:45:07.081Z,8.82
2018-04-12T03:47:35.743Z,8.87
2018-04-12T03:50:04.934Z,8.79
2018-04-12T03:52:33.537Z,8.73
2018-04-12T03:55:02.132Z,8.62
2018-04-12T03:57:30.782Z,8.61
2018-04-12T03:59:59.371Z,8.69
2018-04-12T04:02:27.981Z,8.67
2018-04-12T04:04:56.742Z,8.72
2018-04-12T04:07:25.880Z,8.74
2018-04-12T04:09:54.450Z,8.67
2018-04-12T04:12:23.005Z,8.68
2018-04-12T04:15:00.563Z,8.76
2018-04-12T04:21:48.236Z,8.91
2018-04-12T04:24:16.926Z,8.93
2018-04-12T04:26:51.240Z,8.88
2018-04-12T04:29:19.922Z,8.93
2018-04-12T04:31:48.407Z,8.86
2018-04-12T04:34:16.884Z,8.87
2018-04-12T04:36:45.384Z,8.86
2018-04-12T04:39:13.999Z,8.86
2018-04-12T04:41:42.528Z,8.87
2018-04-12T04:44:11.028Z,8.98
2018-04-12T04:46:40.341Z,8.89
2018-04-12T04:49:09.013Z,8.91
2018-04-12T04:51:37.558Z,8.86
2018-04-12T04:54:06.183Z,9.00
2018-04-12T04:56:35.025Z,8.83
2018-04-12T04:59:03.828Z,8.99
2018-04-12T05:01:32.488Z,9.10
2018-04-12T05:04:01.056Z,8.99
2018-04-12T05:06:29.777Z,9.12
2018-04-12T05:08:58.461Z,9.13
2018-04-12T05:11:27.311Z,9.22
2018-04-12T05:13:56.290Z,9.09
2018-04-12T05:16:24.888Z,9.14
2018-04-12T05:18:54.430Z,9.16
2018-04-12T05:21:23.332Z,9.13
2018-04-12T05:23:52.047Z,9.18
2018-04-12T05:26:20.796Z,9.12
2018-04-12T05:28:49.331Z,9.22
2018-04-12T05:31:17.975Z,9.25
2018-04-12T05:33:46.849Z,9.29
2018-04-12T05:36:15.485Z,9.45
2018-04-12T05:38:44.172Z,9.44
2018-04-12T05:41:12.820Z,9.51
2018-04-12T05:43:41.407Z,9.66
2018-04-12T05:46:10.297Z,9.74
2018-04-12T05:48:39.148Z,9.77
2018-04-12T05:51:09.341Z,9.77
2018-04-12T05:53:37.907Z,10.02
2018-04-12T05:56:06.672Z,10.19
2018-04-12T05:58:37.322Z,10.38
2018-04-12T06:01:07.618Z,10.36
2018-04-12T06:03:36.229Z,10.32
2018-04-12T06:06:04.864Z,10.37
2018-04-12T06:08:33.610Z,10.38
2018-04-12T06:11:02.261Z,10.65
2018-04-12T06:13:30.897Z,10.68
2018-04-12T06:15:59.722Z,10.70
2018-04-12T06:18:29.584Z,10.78
2018-04-12T06:20:58.149Z,10.84
2018-04-12T06:23:26.754Z,11.01
2018-04-12T06:25:55.663Z,11.30
2018-04-12T06:28:24.212Z,11.37
2018-04-12T06:30:52.785Z,11.38
2018-04-12T06:33:21.344Z,11.38
2018-04-12T06:35:50.252Z,11.52
2018-04-12T06:38:18.850Z,11.73
2018-04-12T06:40:47.586Z,11.98
2018-04-12T06:43:16.330Z,12.27
2018-04-12T06:45:47.277Z,12.49
2018-04-12T06:48:15.824Z,12.65
2018-04-12T06:50:44.420Z,12.70
2018-04-12T06:53:13.476Z,12.85
2018-04-12T06:55:42.045Z,13.17
2018-04-12T06:58:10.574Z,13.40
2018-04-12T07:00:39.184Z,13.42
2018-04-12T07:03:08.200Z,13.50
2018-04-12T07:05:36.791Z,13.60
2018-04-12T07:08:05.670Z,13.81
2018-04-12T07:10:34.415Z,14.06
2018-04-12T07:13:03.108Z,14.27
2018-04-12T07:15:31.777Z,14.41
2018-04-12T07:18:00.289Z,14.61
2018-04-12T07:20:28.991Z,14.81
2018-04-12T07:22:57.866Z,14.94
2018-04-12T07:25:26.481Z,15.10
2018-04-12T07:27:55.362Z,15.32
2018-04-12T07:30:24.001Z,15.57
2018-04-12T07:32:52.945Z,15.59
2018-04-12T07:35:21.494Z,15.79
2018-04-12T07:37:51.445Z,16.18
2018-04-12T07:40:20.100Z,16.02
2018-04-12T07:42:48.886Z,15.97
2018-04-12T07:45:17.471Z,15.67
2018-04-12T07:47:46.091Z,15.75
2018-04-12T07:50:14.959Z,15.87
2018-04-12T07:52:43.557Z,16.11
2018-04-12T07:55:12.054Z,16.29
2018-04-12T07:57:40.992Z,16.85
2018-04-12T08:00:10.307Z,17.06
2018-04-12T08:02:38.901Z,17.73
2018-04-12T08:05:08.677Z,17.92
2018-04-12T08:07:37.240Z,17.85
2018-04-12T08:10:05.840Z,17.67
2018-04-12T08:12:34.681Z,17.39
2018-04-12T08:15:03.328Z,17.27
2018-04-12T08:17:31.956Z,16.98
2018-04-12T08:20:00.611Z,17.00
2018-04-12T08:22:29.304Z,16.80
2018-04-12T08:24:58.004Z,16.71
2018-04-12T08:27:26.544Z,16.69
2018-04-12T08:29:55.649Z,16.82
2018-04-12T08:32:24.413Z,16.83
2018-04-12T08:34:53.032Z,16.97
2018-04-12T08:37:21.616Z,17.10
2018-04-12T08:39:50.184Z,17.13
2018-04-12T08:42:19.184Z,17.09
2018-04-12T08:44:47.761Z,17.23
2018-04-12T08:47:16.342Z,17.06
2018-04-12T08:49:45.179Z,16.92
2018-04-12T08:52:14.859Z,17.02
2018-04-12T08:54:43.552Z,17.16
2018-04-12T08:57:12.176Z,17.13
2018-04-12T08:59:41.959Z,17.40
2018-04-12T09:02:10.774Z,17.19
2018-04-12T09:04:39.300Z,17.19
2018-04-12T09:07:07.968Z,17.23
2018-04-12T09:09:36.576Z,17.11
2018-04-12T09:12:05.272Z,17.21
2018-04-12T09:14:33.824Z,17.26
2018-04-12T09:19:44.027Z,17.78
2018-04-12T09:22:12.703Z,18.25
2018-04-12T09:24:42.325Z,18.65
2018-04-12T09:27:11.825Z,19.74
2018-04-12T09:29:40.908Z,19.84
2018-04-12T09:32:09.420Z,20.31
2018-04-12T09:34:38.040Z,20.88
2018-04-12T09:37:06.573Z,21.41
2018-04-12T09:39:35.344Z,21.18
2018-04-12T09:42:03.856Z,20.50
2018-04-12T09:44:32.383Z,20.39
2018-04-12T09:47:00.903Z,19.99
2018-04-12T09:49:29.478Z,19.73
2018-04-12T09:51:58.144Z,19.36
2018-04-12T13:53:01.824Z,22.33
2018-04-12T13:55:32.887Z,22.30
2018-04-12T13:58:09.710Z,22.06
2018-04-12T14:00:43.884Z,22.09
2018-04-12T14:03:15.875Z,22.00
2018-04-12T14:05:55.104Z,21.85
2018-04-12T14:08:28.502Z,22.01
2018-04-12T14:11:02.092Z,21.90
2018-04-12T14:13:31.024Z,21.73
2018-04-12T14:15:59.624Z,21.76
2018-04-12T14:18:28.704Z,22.09
2018-04-12T14:20:59.287Z,22.24
2018-04-12T14:23:29.701Z,22.44
2018-04-12T14:25:58.489Z,22.65
2018-04-12T14:29:09.783Z,22.49
2018-04-12T14:31:41.761Z,23.00
2018-04-12T14:34:15.655Z,23.17
2018-04-12T14:36:46.448Z,22.88
2018-04-12T14:39:15.632Z,23.17
2018-04-12T14:41:51.077Z,23.10
2018-04-12T14:44:21.980Z,23.65
2018-04-12T14:46:51.468Z,24.14
2018-04-12T14:49:23.466Z,24.19
2018-04-12T14:51:52.493Z,24.75
2018-04-12T14:54:21.777Z,25.05
2018-04-12T14:56:51.296Z,24.76
2018-04-12T14:59:26.459Z,26.05
2018-04-12T15:01:56.281Z,25.50
2018-04-12T15:04:25.637Z,26.41
2018-04-12T15:06:55.560Z,25.54
2018-04-12T15:09:25.015Z,25.19
2018-04-12T15:11:54.433Z,24.76
2018-04-12T15:14:23.236Z,24.62
2018-04-12T15:16:53.580Z,24.55
2018-04-12T15:19:24.147Z,23.76
2018-04-12T15:21:54.074Z,23.80
2018-04-12T15:24:22.812Z,24.44
2018-04-12T15:26:54.040Z,24.85
2018-04-12T15:29:23.511Z,25.32
2018-04-12T15:31:53.082Z,26.00
2018-04-12T15:34:23.791Z,26.23
2018-04-12T15:36:53.487Z,26.90
2018-04-12T15:39:26.510Z,26.57
2018-04-12T15:45:06.284Z,26.42
2018-04-12T15:47:36.774Z,25.85
2018-04-12T15:50:11.743Z,26.16
2018-04-12T15:52:49.845Z,25.85
2018-04-12T15:55:19.557Z,25.53
2018-04-12T15:57:49.821Z,25.44
2018-04-12T16:00:20.482Z,24.83
2018-04-12T16:02:50.561Z,25.07
2018-04-12T16:05:22.698Z,23.86
2018-04-12T16:07:54.382Z,23.63
2018-04-12T16:10:26.306Z,22.99
2018-04-12T16:12:59.380Z,22.37
2018-04-12T16:15:29.118Z,21.92
2018-04-12T16:17:57.716Z,21.60
2018-04-12T16:20:26.559Z,21.16
2018-04-12T16:26:03.822Z,20.78
2018-04-12T16:28:35.683Z,20.55
2018-04-12T16:31:06.633Z,20.50
2018-04-12T16:33:38.182Z,20.46
2018-04-12T16:36:10.663Z,20.64
2018-04-12T16:38:43.014Z,20.85
2018-04-12T16:41:16.616Z,20.91
2018-04-12T16:43:49.543Z,21.01
2018-04-12T16:46:27.156Z,20.83
2018-04-12T16:49:10.863Z,20.72
2018-04-12T16:51:48.263Z,20.63
2018-04-12T16:54:26.768Z,20.60
2018-04-12T16:56:56.143Z,20.56
2018-04-12T16:59:26.315Z,20.52
2018-04-12T17:01:57.114Z,20.25
2018-04-12T17:04:29.709Z,20.20
2018-04-12T17:07:05.919Z,20.09
2018-04-12T17:09:37.665Z,20.17
2018-04-12T17:12:10.297Z,20.03
2018-04-12T17:14:47.526Z,19.98
2018-04-12T17:17:19.696Z,19.85
2018-04-12T17:19:49.131Z,20.03
2018-04-12T17:22:18.309Z,19.75
2018-04-12T17:24:48.184Z,19.66
2018-04-12T17:27:18.918Z,19.59
2018-04-12T17:29:49.876Z,19.42
2018-04-12T17:32:20.507Z,19.16
2018-04-12T17:34:50.164Z,19.11
2018-04-12T17:37:19.196Z,18.96
2018-04-12T17:39:53.128Z,18.96
2018-04-12T17:42:27.184Z,18.77
2018-04-12T17:44:57.545Z,18.60
2018-04-12T17:47:27.193Z,18.68
2018-04-12T17:49:56.758Z,18.66
2018-04-12T17:52:29.853Z,18.46
2018-04-12T17:54:59.168Z,18.53
2018-04-12T17:57:28.330Z,18.23
2018-04-12T17:59:57.352Z,17.89
2018-04-12T18:02:26.545Z,17.63
2018-04-12T18:04:55.777Z,17.44
2018-04-12T18:07:25.202Z,17.34
2018-04-12T18:09:54.247Z,17.38
2018-04-12T18:12:23.879Z,17.35
2018-04-12T18:14:54.072Z,17.04
2018-04-12T18:17:23.023Z,16.72
2018-04-12T18:19:52.056Z,16.39
2018-04-12T18:22:21.467Z,16.51
2018-04-12T18:24:50.764Z,16.72
2018-04-12T18:27:19.755Z,16.32
2018-04-12T18:29:49.165Z,16.28
2018-04-12T18:32:18.663Z,16.23
2018-04-12T18:34:52.224Z,16.00
2018-04-12T18:37:21.602Z,15.83
2018-04-12T18:39:51.113Z,15.53
2018-04-12T18:42:20.186Z,15.31
2018-04-12T18:44:51.923Z,15.04
2018-04-12T18:47:24.868Z,14.92
2018-04-12T18:50:00.634Z,15.02
2018-04-12T18:52:31.182Z,15.18
2018-04-12T18:55:00.344Z,15.23
2018-04-12T18:57:29.260Z,15.06
2018-04-12T18:59:58.476Z,14.86
2018-04-12T19:02:27.626Z,14.77
2018-04-12T19:04:57.355Z,14.57
2018-04-12T19:07:30.251Z,14.58
2018-04-12T19:09:59.334Z,14.60
2018-04-12T19:12:28.323Z,14.13
2018-04-12T19:14:57.622Z,14.30
2018-04-12T19:17:27.233Z,14.29
2018-04-12T19:19:56.450Z,14.42
2018-04-12T19:22:25.883Z,14.34
2018-04-12T19:24:59.672Z,14.28
2018-04-12T19:27:29.096Z,13.91
2018-04-12T19:30:03.795Z,13.79
2018-04-12T19:32:32.917Z,13.63
2018-04-12T19:35:10.990Z,13.40
2018-04-12T19:37:41.713Z,13.47
2018-04-12T19:40:10.696Z,13.77
2018-04-12T19:42:39.719Z,13.30
2018-04-12T19:45:21.256Z,13.38
2018-04-12T19:47:50.220Z,13.50
2018-04-12T19:50:19.653Z,13.51
2018-04-12T19:52:49.706Z,13.42
2018-04-12T19:55:21.388Z,13.63
2018-04-12T19:57:51.403Z,13.21
2018-04-12T20:00:20.863Z,13.10
2018-04-12T20:02:49.942Z,13.15
2018-04-12T20:05:19.430Z,13.06
2018-04-12T20:07:51.499Z,12.99
2018-04-12T20:10:22.246Z,13.04
2018-04-12T20:12:52.229Z,12.98
2018-04-12T20:15:22.157Z,12.85
2018-04-12T20:17:58.894Z,12.78
2018-04-12T20:20:32.161Z,12.76
2018-04-12T20:23:05.353Z,12.64
2018-04-12T20:25:35.939Z,12.49
2018-04-12T20:28:09.119Z,12.47
2018-04-12T20:30:47.952Z,12.46
2018-04-12T20:33:20.857Z,12.45
2018-04-12T20:35:52.163Z,12.36
2018-04-12T20:38:22.235Z,12.29
2018-04-12T20:40:51.874Z,12.20
2018-04-12T20:43:21.675Z,12.21
2018-04-12T20:45:51.799Z,12.19
2018-04-12T20:48:22.313Z,12.16
2018-04-12T20:50:51.595Z,12.08
2018-04-12T20:53:21.122Z,11.94
2018-04-12T20:55:50.733Z,11.88
2018-04-12T20:58:20.611Z,11.87
2018-04-12T21:00:50.469Z,11.77
2018-04-12T21:03:20.256Z,11.65
2018-04-12T21:05:50.455Z,11.57
2018-04-12T21:08:21.465Z,11.44
2018-04-12T21:10:51.608Z,11.47
2018-04-12T21:13:21.094Z,11.52
2018-04-12T21:15:51.545Z,11.48
2018-04-12T21:18:21.482Z,11.37
2018-04-12T21:20:50.445Z,11.30
2018-04-12T21:23:20.196Z,11.40
2018-04-12T21:25:50.321Z,11.34
2018-04-12T21:28:20.191Z,11.28
2018-04-12T21:30:49.271Z,11.28
2018-04-12T21:33:18.397Z,11.17
2018-04-12T21:35:47.456Z,11.13
2018-04-12T21:38:17.086Z,11.06
2018-04-12T21:40:46.171Z,10.95
2018-04-12T21:43:15.294Z,10.88
2018-04-12T21:45:46.721Z,10.87
2018-04-12T21:48:15.933Z,10.77
2018-04-12T21:50:45.117Z,10.70
2018-04-12T21:53:14.770Z,10.63
2018-04-12T21:55:43.768Z,10.72
2018-04-12T21:58:12.975Z,10.61
2018-04-12T22:00:42.012Z,10.60
2018-04-12T22:03:11.518Z,10.57
2018-04-12T22:05:41.792Z,10.43
2018-04-12T22:08:10.883Z,10.28
2018-04-12T22:10:40.180Z,10.30
2018-04-12T22:13:10.751Z,10.28
2018-04-12T22:15:39.837Z,10.38
2018-04-12T22:18:08.846Z,10.37
2018-04-12T22:20:39.243Z,10.18
2018-04-12T22:23:08.677Z,10.22
2018-04-12T22:25:37.759Z,10.12
2018-04-12T22:28:08.499Z,10.03
2018-04-12T22:30:37.692Z,9.97
2018-04-12T22:33:06.864Z,10.06
2018-04-12T22:35:35.887Z,10.02
2018-04-12T22:38:05.036Z,9.92
2018-04-12T22:40:34.193Z,9.94
2018-04-12T22:43:03.579Z,9.83
2018-04-12T22:45:34.071Z,9.75
2018-04-12T22:48:03.236Z,9.74
2018-04-12T22:50:32.575Z,9.71
2018-04-12T22:53:01.916Z,9.72
2018-04-12T22:55:31.068Z,9.60
2018-04-12T22:58:00.128Z,9.66
2018-04-12T23:00:33.174Z,9.65
2018-04-12T23:03:02.256Z,9.65
2018-04-12T23:05:31.527Z,9.67
2018-04-12T23:08:00.690Z,9.55
2018-04-12T23:10:31.261Z,9.47
2018-04-12T23:13:00.656Z,9.47
2018-04-12T23:15:30.023Z,9.43
2018-04-12T23:17:59.317Z,9.38
2018-04-12T23:20:28.398Z,9.26
2018-04-12T23:22:57.429Z,9.25
2018-04-12T23:25:26.515Z,9.21
2018-04-12T23:27:56.404Z,9.17
2018-04-12T23:30:25.593Z,9.19
2018-04-12T23:32:55.366Z,9.05
2018-04-12T23:35:30.150Z,9.10
2018-04-12T23:37:59.217Z,9.10
2018-04-12T23:40:28.295Z,9.01
2018-04-12T23:42:57.441Z,9.00
2018-04-12T23:45:27.104Z,8.96
2018-04-12T23:47:56.132Z,8.91
2018-04-12T23:50:25.176Z,8.97
2018-04-12T23:52:54.536Z,8.94
2018-04-12T23:55:23.642Z,8.90
2018-04-12T23:57:53.887Z,8.96
